sensor_id;sensor_type;location;lat;lon;timestamp;P1;durP1;ratioP1;P2;durP2;ratioP2
76373;SDS011;65197;50.164;8.012;2023-02-28T00:01:06;3.90;;;2.53;;
76373;SDS011;65197;50.164;8.012;2023-02-28T00:03:31;3.20;;;2.50;;
76373;SDS011;65197;50.164;8.012;2023-02-28T00:06:00;5.00;;;2.42;;
76373;SDS011;65197;50.164;8.012;2023-02-28T00:08:27;5.50;;;2.65;;
76373;SDS011;65197;50.164;8.012;2023-02-28T00:10:53;3.80;;;2.40;;
76373;SDS011;65197;50.164;8.012;2023-02-28T00:13:18;2.80;;;2.15;;
76373;SDS011;65197;50.164;8.012;2023-02-28T00:15:44;4.13;;;2.70;;
76373;SDS011;65197;50.164;8.012;2023-02-28T00:18:10;6.05;;;2.42;;
76373;SDS011;65197;50.164;8.012;2023-02-28T00:20:36;4.03;;;2.63;;
76373;SDS011;65197;50.164;8.012;2023-02-28T00:23:02;3.97;;;2.42;;
76373;SDS011;65197;50.164;8.012;2023-02-28T00:25:27;5.97;;;2.67;;
76373;SDS011;65197;50.164;8.012;2023-02-28T00:27:52;2.63;;;2.00;;
76373;SDS011;65197;50.164;8.012;2023-02-28T00:30:19;3.13;;;2.17;;
76373;SDS011;65197;50.164;8.012;2023-02-28T00:32:46;4.05;;;2.33;;
76373;SDS011;65197;50.164;8.012;2023-02-28T00:35:11;4.05;;;2.78;;
76373;SDS011;65197;50.164;8.012;2023-02-28T00:37:37;3.53;;;2.58;;
76373;SDS011;65197;50.164;8.012;2023-02-28T00:40:04;4.10;;;2.75;;
76373;SDS011;65197;50.164;8.012;2023-02-28T00:42:31;3.63;;;2.25;;
76373;SDS011;65197;50.164;8.012;2023-02-28T00:44:57;6.57;;;2.65;;
76373;SDS011;65197;50.164;8.012;2023-02-28T00:47:22;5.18;;;2.72;;
76373;SDS011;65197;50.164;8.012;2023-02-28T00:49:48;4.72;;;3.13;;
76373;SDS011;65197;50.164;8.012;2023-02-28T00:52:13;5.03;;;3.13;;
76373;SDS011;65197;50.164;8.012;2023-02-28T00:54:39;7.07;;;3.63;;
76373;SDS011;65197;50.164;8.012;2023-02-28T00:57:04;5.22;;;3.35;;
76373;SDS011;65197;50.164;8.012;2023-02-28T00:59:29;6.22;;;3.03;;
76373;SDS011;65197;50.164;8.012;2023-02-28T01:01:55;7.38;;;3.90;;
76373;SDS011;65197;50.164;8.012;2023-02-28T01:04:20;3.85;;;2.78;;
76373;SDS011;65197;50.164;8.012;2023-02-28T01:06:46;5.55;;;3.72;;
76373;SDS011;65197;50.164;8.012;2023-02-28T01:09:11;4.68;;;2.75;;
76373;SDS011;65197;50.164;8.012;2023-02-28T01:11:37;5.93;;;3.30;;
76373;SDS011;65197;50.164;8.012;2023-02-28T01:14:02;13.25;;;4.28;;
76373;SDS011;65197;50.164;8.012;2023-02-28T01:16:29;4.32;;;3.03;;
76373;SDS011;65197;50.164;8.012;2023-02-28T01:18:55;6.90;;;3.85;;
76373;SDS011;65197;50.164;8.012;2023-02-28T01:21:20;4.97;;;3.25;;
76373;SDS011;65197;50.164;8.012;2023-02-28T01:23:46;4.72;;;2.78;;
76373;SDS011;65197;50.164;8.012;2023-02-28T01:26:17;5.57;;;3.25;;
76373;SDS011;65197;50.164;8.012;2023-02-28T01:28:44;5.72;;;2.83;;
76373;SDS011;65197;50.164;8.012;2023-02-28T01:31:11;7.43;;;4.43;;
76373;SDS011;65197;50.164;8.012;2023-02-28T01:33:37;5.47;;;3.85;;
76373;SDS011;65197;50.164;8.012;2023-02-28T01:38:36;7.68;;;3.85;;
76373;SDS011;65197;50.164;8.012;2023-02-28T01:41:01;5.50;;;3.67;;
76373;SDS011;65197;50.164;8.012;2023-02-28T01:43:28;6.95;;;4.00;;
76373;SDS011;65197;50.164;8.012;2023-02-28T01:46:17;5.65;;;3.50;;
76373;SDS011;65197;50.164;8.012;2023-02-28T01:48:43;6.28;;;3.38;;
76373;SDS011;65197;50.164;8.012;2023-02-28T01:52:03;4.85;;;3.45;;
76373;SDS011;65197;50.164;8.012;2023-02-28T01:54:16;6.35;;;4.50;;
76373;SDS011;65197;50.164;8.012;2023-02-28T01:56:47;5.22;;;3.30;;
76373;SDS011;65197;50.164;8.012;2023-02-28T01:59:25;8.15;;;4.38;;
76373;SDS011;65197;50.164;8.012;2023-02-28T02:01:56;7.57;;;3.42;;
76373;SDS011;65197;50.164;8.012;2023-02-28T02:04:21;8.20;;;4.60;;
76373;SDS011;65197;50.164;8.012;2023-02-28T02:06:50;6.93;;;3.80;;
76373;SDS011;65197;50.164;8.012;2023-02-28T02:09:15;6.38;;;4.20;;
76373;SDS011;65197;50.164;8.012;2023-02-28T02:11:42;9.13;;;5.28;;
76373;SDS011;65197;50.164;8.012;2023-02-28T02:16:57;9.20;;;4.53;;
76373;SDS011;65197;50.164;8.012;2023-02-28T02:30:55;12.80;;;4.90;;
76373;SDS011;65197;50.164;8.012;2023-02-28T02:36:33;6.78;;;4.13;;
76373;SDS011;65197;50.164;8.012;2023-02-28T02:39:14;6.45;;;3.78;;
76373;SDS011;65197;50.164;8.012;2023-02-28T02:41:49;8.75;;;4.43;;
76373;SDS011;65197;50.164;8.012;2023-02-28T02:44:21;8.35;;;5.00;;
76373;SDS011;65197;50.164;8.012;2023-02-28T02:46:52;7.15;;;4.20;;
76373;SDS011;65197;50.164;8.012;2023-02-28T02:49:24;7.68;;;4.93;;
76373;SDS011;65197;50.164;8.012;2023-02-28T02:51:56;7.25;;;5.20;;
76373;SDS011;65197;50.164;8.012;2023-02-28T02:54:27;8.07;;;4.38;;
76373;SDS011;65197;50.164;8.012;2023-02-28T02:57:03;6.28;;;4.22;;
76373;SDS011;65197;50.164;8.012;2023-02-28T02:59:36;7.63;;;4.35;;
76373;SDS011;65197;50.164;8.012;2023-02-28T03:02:06;7.57;;;3.67;;
76373;SDS011;65197;50.164;8.012;2023-02-28T03:04:42;7.05;;;4.68;;
76373;SDS011;65197;50.164;8.012;2023-02-28T03:07:10;6.88;;;4.47;;
76373;SDS011;65197;50.164;8.012;2023-02-28T03:09:36;6.85;;;4.03;;
76373;SDS011;65197;50.164;8.012;2023-02-28T03:12:02;8.02;;;4.63;;
76373;SDS011;65197;50.164;8.012;2023-02-28T03:14:47;5.45;;;3.13;;
76373;SDS011;65197;50.164;8.012;2023-02-28T03:17:25;10.52;;;4.47;;
76373;SDS011;65197;50.164;8.012;2023-02-28T03:20:17;9.73;;;4.82;;
76373;SDS011;65197;50.164;8.012;2023-02-28T03:22:50;8.52;;;4.72;;
76373;SDS011;65197;50.164;8.012;2023-02-28T03:28:16;8.32;;;5.20;;
76373;SDS011;65197;50.164;8.012;2023-02-28T03:33:22;10.93;;;5.55;;
76373;SDS011;65197;50.164;8.012;2023-02-28T03:35:54;8.90;;;4.50;;
76373;SDS011;65197;50.164;8.012;2023-02-28T03:38:28;7.82;;;4.45;;
76373;SDS011;65197;50.164;8.012;2023-02-28T03:41:09;8.20;;;4.70;;
76373;SDS011;65197;50.164;8.012;2023-02-28T03:43:36;8.35;;;4.45;;
76373;SDS011;65197;50.164;8.012;2023-02-28T03:46:07;7.90;;;4.88;;
76373;SDS011;65197;50.164;8.012;2023-02-28T03:51:13;8.45;;;4.57;;
76373;SDS011;65197;50.164;8.012;2023-02-28T03:53:44;9.52;;;4.82;;
76373;SDS011;65197;50.164;8.012;2023-02-28T03:56:20;6.00;;;4.57;;
76373;SDS011;65197;50.164;8.012;2023-02-28T03:58:54;8.40;;;5.43;;
76373;SDS011;65197;50.164;8.012;2023-02-28T04:01:25;8.43;;;5.25;;
76373;SDS011;65197;50.164;8.012;2023-02-28T04:03:57;9.10;;;4.93;;
76373;SDS011;65197;50.164;8.012;2023-02-28T04:06:23;9.63;;;4.78;;
76373;SDS011;65197;50.164;8.012;2023-02-28T04:08:50;7.93;;;5.15;;
76373;SDS011;65197;50.164;8.012;2023-02-28T04:11:23;9.95;;;5.50;;
76373;SDS011;65197;50.164;8.012;2023-02-28T04:13:57;5.55;;;3.42;;
76373;SDS011;65197;50.164;8.012;2023-02-28T04:16:22;8.18;;;3.95;;
76373;SDS011;65197;50.164;8.012;2023-02-28T04:18:48;8.73;;;4.78;;
76373;SDS011;65197;50.164;8.012;2023-02-28T04:21:13;6.65;;;4.80;;
76373;SDS011;65197;50.164;8.012;2023-02-28T04:23:39;8.55;;;6.07;;
76373;SDS011;65197;50.164;8.012;2023-02-28T04:26:04;9.75;;;5.32;;
76373;SDS011;65197;50.164;8.012;2023-02-28T04:28:30;6.32;;;4.40;;
76373;SDS011;65197;50.164;8.012;2023-02-28T04:30:57;9.25;;;4.97;;
76373;SDS011;65197;50.164;8.012;2023-02-28T04:33:24;15.15;;;5.90;;
76373;SDS011;65197;50.164;8.012;2023-02-28T04:36:00;7.63;;;4.63;;
76373;SDS011;65197;50.164;8.012;2023-02-28T04:38:27;9.77;;;5.68;;
76373;SDS011;65197;50.164;8.012;2023-02-28T04:40:56;6.82;;;3.75;;
76373;SDS011;65197;50.164;8.012;2023-02-28T04:43:22;7.72;;;3.65;;
76373;SDS011;65197;50.164;8.012;2023-02-28T04:45:47;10.07;;;5.18;;
76373;SDS011;65197;50.164;8.012;2023-02-28T04:48:13;12.45;;;5.93;;
76373;SDS011;65197;50.164;8.012;2023-02-28T04:50:38;8.55;;;4.45;;
76373;SDS011;65197;50.164;8.012;2023-02-28T04:53:03;8.73;;;5.55;;
76373;SDS011;65197;50.164;8.012;2023-02-28T04:55:29;7.43;;;4.93;;
76373;SDS011;65197;50.164;8.012;2023-02-28T04:57:54;8.05;;;4.28;;
76373;SDS011;65197;50.164;8.012;2023-02-28T05:00:20;8.73;;;4.57;;
76373;SDS011;65197;50.164;8.012;2023-02-28T05:02:45;5.38;;;3.53;;
76373;SDS011;65197;50.164;8.012;2023-02-28T05:05:11;7.65;;;4.43;;
76373;SDS011;65197;50.164;8.012;2023-02-28T05:07:41;9.93;;;5.13;;
76373;SDS011;65197;50.164;8.012;2023-02-28T05:10:07;5.80;;;3.88;;
76373;SDS011;65197;50.164;8.012;2023-02-28T05:12:32;6.85;;;4.20;;
76373;SDS011;65197;50.164;8.012;2023-02-28T05:14:58;7.18;;;4.85;;
76373;SDS011;65197;50.164;8.012;2023-02-28T05:17:23;9.07;;;4.72;;
76373;SDS011;65197;50.164;8.012;2023-02-28T05:19:48;10.00;;;5.50;;
76373;SDS011;65197;50.164;8.012;2023-02-28T05:22:14;12.13;;;5.85;;
76373;SDS011;65197;50.164;8.012;2023-02-28T05:24:43;11.20;;;5.90;;
76373;SDS011;65197;50.164;8.012;2023-02-28T05:27:09;9.55;;;5.57;;
76373;SDS011;65197;50.164;8.012;2023-02-28T05:29:34;9.60;;;5.32;;
76373;SDS011;65197;50.164;8.012;2023-02-28T05:32:06;13.07;;;5.93;;
76373;SDS011;65197;50.164;8.012;2023-02-28T05:34:33;10.13;;;5.55;;
76373;SDS011;65197;50.164;8.012;2023-02-28T05:36:59;8.43;;;4.85;;
76373;SDS011;65197;50.164;8.012;2023-02-28T05:39:24;6.10;;;3.67;;
76373;SDS011;65197;50.164;8.012;2023-02-28T05:41:50;11.70;;;6.35;;
76373;SDS011;65197;50.164;8.012;2023-02-28T05:44:15;8.95;;;5.22;;
76373;SDS011;65197;50.164;8.012;2023-02-28T05:46:40;9.32;;;5.68;;
76373;SDS011;65197;50.164;8.012;2023-02-28T05:49:06;12.55;;;5.80;;
76373;SDS011;65197;50.164;8.012;2023-02-28T05:51:31;7.55;;;4.60;;
76373;SDS011;65197;50.164;8.012;2023-02-28T05:54:00;7.88;;;4.45;;
76373;SDS011;65197;50.164;8.012;2023-02-28T05:56:26;8.90;;;4.80;;
76373;SDS011;65197;50.164;8.012;2023-02-28T05:58:52;11.18;;;5.82;;
76373;SDS011;65197;50.164;8.012;2023-02-28T06:03:47;7.97;;;4.50;;
76373;SDS011;65197;50.164;8.012;2023-02-28T06:06:13;9.93;;;5.25;;
76373;SDS011;65197;50.164;8.012;2023-02-28T06:08:38;11.27;;;5.45;;
76373;SDS011;65197;50.164;8.012;2023-02-28T06:11:04;8.60;;;4.78;;
76373;SDS011;65197;50.164;8.012;2023-02-28T06:13:29;8.82;;;4.60;;
76373;SDS011;65197;50.164;8.012;2023-02-28T06:15:55;8.63;;;4.72;;
76373;SDS011;65197;50.164;8.012;2023-02-28T06:18:20;8.05;;;5.15;;
76373;SDS011;65197;50.164;8.012;2023-02-28T06:20:52;8.45;;;5.43;;
76373;SDS011;65197;50.164;8.012;2023-02-28T06:23:19;6.20;;;4.55;;
76373;SDS011;65197;50.164;8.012;2023-02-28T06:25:45;7.30;;;4.38;;
76373;SDS011;65197;50.164;8.012;2023-02-28T06:28:10;10.45;;;4.65;;
76373;SDS011;65197;50.164;8.012;2023-02-28T06:30:36;7.68;;;4.88;;
76373;SDS011;65197;50.164;8.012;2023-02-28T06:33:03;7.28;;;4.85;;
76373;SDS011;65197;50.164;8.012;2023-02-28T06:35:28;5.40;;;3.70;;
76373;SDS011;65197;50.164;8.012;2023-02-28T06:37:54;7.68;;;4.22;;
76373;SDS011;65197;50.164;8.012;2023-02-28T06:40:20;7.88;;;4.43;;
76373;SDS011;65197;50.164;8.012;2023-02-28T06:42:45;5.45;;;3.80;;
76373;SDS011;65197;50.164;8.012;2023-02-28T06:45:11;5.30;;;3.20;;
76373;SDS011;65197;50.164;8.012;2023-02-28T06:47:40;7.20;;;3.58;;
76373;SDS011;65197;50.164;8.012;2023-02-28T06:50:07;8.38;;;3.85;;
76373;SDS011;65197;50.164;8.012;2023-02-28T06:52:34;6.93;;;3.50;;
76373;SDS011;65197;50.164;8.012;2023-02-28T06:55:01;9.13;;;4.20;;
76373;SDS011;65197;50.164;8.012;2023-02-28T06:57:27;5.07;;;3.35;;
76373;SDS011;65197;50.164;8.012;2023-02-28T06:59:55;5.80;;;3.50;;
76373;SDS011;65197;50.164;8.012;2023-02-28T07:02:22;5.80;;;3.78;;
76373;SDS011;65197;50.164;8.012;2023-02-28T07:04:47;5.88;;;3.88;;
76373;SDS011;65197;50.164;8.012;2023-02-28T07:07:12;8.88;;;4.78;;
76373;SDS011;65197;50.164;8.012;2023-02-28T07:09:38;10.18;;;3.40;;
76373;SDS011;65197;50.164;8.012;2023-02-28T07:12:04;7.57;;;4.13;;
76373;SDS011;65197;50.164;8.012;2023-02-28T07:14:29;6.25;;;3.47;;
76373;SDS011;65197;50.164;8.012;2023-02-28T07:16:55;7.50;;;3.50;;
76373;SDS011;65197;50.164;8.012;2023-02-28T07:19:20;7.53;;;3.50;;
76373;SDS011;65197;50.164;8.012;2023-02-28T07:21:45;5.78;;;3.65;;
76373;SDS011;65197;50.164;8.012;2023-02-28T07:24:11;3.67;;;2.40;;
76373;SDS011;65197;50.164;8.012;2023-02-28T07:26:36;4.78;;;3.08;;
76373;SDS011;65197;50.164;8.012;2023-02-28T07:29:02;7.35;;;3.58;;
76373;SDS011;65197;50.164;8.012;2023-02-28T07:31:27;6.68;;;4.00;;
76373;SDS011;65197;50.164;8.012;2023-02-28T07:33:53;8.40;;;4.65;;
76373;SDS011;65197;50.164;8.012;2023-02-28T07:36:19;5.95;;;3.33;;
76373;SDS011;65197;50.164;8.012;2023-02-28T07:38:45;6.65;;;3.50;;
76373;SDS011;65197;50.164;8.012;2023-02-28T07:41:13;5.30;;;2.88;;
76373;SDS011;65197;50.164;8.012;2023-02-28T07:43:39;4.97;;;3.33;;
76373;SDS011;65197;50.164;8.012;2023-02-28T07:46:06;5.38;;;3.25;;
76373;SDS011;65197;50.164;8.012;2023-02-28T07:48:34;6.63;;;3.92;;
76373;SDS011;65197;50.164;8.012;2023-02-28T07:51:00;6.57;;;3.45;;
76373;SDS011;65197;50.164;8.012;2023-02-28T07:53:26;6.25;;;3.90;;
76373;SDS011;65197;50.164;8.012;2023-02-28T07:55:58;4.88;;;3.70;;
76373;SDS011;65197;50.164;8.012;2023-02-28T07:58:26;5.80;;;3.58;;
76373;SDS011;65197;50.164;8.012;2023-02-28T08:00:53;6.18;;;3.85;;
76373;SDS011;65197;50.164;8.012;2023-02-28T08:03:18;4.93;;;3.20;;
76373;SDS011;65197;50.164;8.012;2023-02-28T08:05:46;6.28;;;3.70;;
76373;SDS011;65197;50.164;8.012;2023-02-28T08:08:12;6.07;;;3.53;;
76373;SDS011;65197;50.164;8.012;2023-02-28T08:10:38;5.75;;;3.75;;
76373;SDS011;65197;50.164;8.012;2023-02-28T08:13:04;4.32;;;3.20;;
76373;SDS011;65197;50.164;8.012;2023-02-28T08:15:29;6.57;;;4.10;;
76373;SDS011;65197;50.164;8.012;2023-02-28T08:17:55;5.07;;;3.65;;
76373;SDS011;65197;50.164;8.012;2023-02-28T08:20:23;5.50;;;3.15;;
76373;SDS011;65197;50.164;8.012;2023-02-28T08:22:49;5.70;;;3.53;;
76373;SDS011;65197;50.164;8.012;2023-02-28T08:25:15;5.47;;;2.88;;
76373;SDS011;65197;50.164;8.012;2023-02-28T08:27:40;5.80;;;3.38;;
76373;SDS011;65197;50.164;8.012;2023-02-28T08:30:06;5.57;;;3.53;;
76373;SDS011;65197;50.164;8.012;2023-02-28T08:32:32;5.05;;;3.22;;
76373;SDS011;65197;50.164;8.012;2023-02-28T08:34:58;4.80;;;3.08;;
76373;SDS011;65197;50.164;8.012;2023-02-28T08:37:24;5.63;;;3.33;;
76373;SDS011;65197;50.164;8.012;2023-02-28T08:39:50;6.93;;;3.75;;
76373;SDS011;65197;50.164;8.012;2023-02-28T08:42:15;8.65;;;3.67;;
76373;SDS011;65197;50.164;8.012;2023-02-28T08:44:40;5.50;;;3.47;;
76373;SDS011;65197;50.164;8.012;2023-02-28T08:47:06;5.93;;;3.05;;
76373;SDS011;65197;50.164;8.012;2023-02-28T08:49:31;4.72;;;3.10;;
76373;SDS011;65197;50.164;8.012;2023-02-28T08:51:57;5.80;;;4.03;;
76373;SDS011;65197;50.164;8.012;2023-02-28T08:54:23;6.88;;;3.08;;
76373;SDS011;65197;50.164;8.012;2023-02-28T08:56:49;5.13;;;3.05;;
76373;SDS011;65197;50.164;8.012;2023-02-28T08:59:14;5.70;;;3.72;;
76373;SDS011;65197;50.164;8.012;2023-02-28T09:01:40;6.53;;;2.80;;
76373;SDS011;65197;50.164;8.012;2023-02-28T09:04:06;4.47;;;3.28;;
76373;SDS011;65197;50.164;8.012;2023-02-28T09:06:33;6.65;;;3.40;;
76373;SDS011;65197;50.164;8.012;2023-02-28T09:08:59;4.90;;;2.80;;
76373;SDS011;65197;50.164;8.012;2023-02-28T09:11:26;7.45;;;3.50;;
76373;SDS011;65197;50.164;8.012;2023-02-28T09:13:51;5.05;;;3.58;;
76373;SDS011;65197;50.164;8.012;2023-02-28T09:16:17;4.00;;;2.50;;
76373;SDS011;65197;50.164;8.012;2023-02-28T09:18:43;4.68;;;3.08;;
76373;SDS011;65197;50.164;8.012;2023-02-28T09:21:10;6.22;;;3.03;;
76373;SDS011;65197;50.164;8.012;2023-02-28T09:23:39;6.18;;;3.00;;
76373;SDS011;65197;50.164;8.012;2023-02-28T09:26:05;5.78;;;3.42;;
76373;SDS011;65197;50.164;8.012;2023-02-28T09:28:31;5.55;;;3.00;;
76373;SDS011;65197;50.164;8.012;2023-02-28T09:30:57;4.97;;;2.72;;
76373;SDS011;65197;50.164;8.012;2023-02-28T09:33:24;3.90;;;2.72;;
76373;SDS011;65197;50.164;8.012;2023-02-28T09:35:50;12.43;;;2.88;;
76373;SDS011;65197;50.164;8.012;2023-02-28T09:38:16;5.90;;;2.72;;
76373;SDS011;65197;50.164;8.012;2023-02-28T09:40:50;6.07;;;3.40;;
76373;SDS011;65197;50.164;8.012;2023-02-28T09:48:37;3.58;;;2.80;;
76373;SDS011;65197;50.164;8.012;2023-02-28T09:53:41;4.30;;;3.22;;
76373;SDS011;65197;50.164;8.012;2023-02-28T09:56:08;4.25;;;2.50;;
76373;SDS011;65197;50.164;8.012;2023-02-28T09:58:57;4.20;;;2.55;;
76373;SDS011;65197;50.164;8.012;2023-02-28T10:04:36;3.90;;;2.65;;
76373;SDS011;65197;50.164;8.012;2023-02-28T10:07:21;3.88;;;2.38;;
76373;SDS011;65197;50.164;8.012;2023-02-28T10:10:22;4.13;;;2.70;;
76373;SDS011;65197;50.164;8.012;2023-02-28T10:12:48;5.78;;;3.08;;
76373;SDS011;65197;50.164;8.012;2023-02-28T10:15:18;5.60;;;3.58;;
76373;SDS011;65197;50.164;8.012;2023-02-28T10:17:47;4.28;;;2.47;;
76373;SDS011;65197;50.164;8.012;2023-02-28T10:20:19;4.97;;;2.63;;
76373;SDS011;65197;50.164;8.012;2023-02-28T10:22:57;5.40;;;2.90;;
76373;SDS011;65197;50.164;8.012;2023-02-28T10:25:35;4.85;;;2.65;;
76373;SDS011;65197;50.164;8.012;2023-02-28T10:28:12;4.43;;;2.80;;
76373;SDS011;65197;50.164;8.012;2023-02-28T10:30:44;5.40;;;3.13;;
76373;SDS011;65197;50.164;8.012;2023-02-28T10:33:19;3.78;;;2.60;;
76373;SDS011;65197;50.164;8.012;2023-02-28T10:35:53;4.40;;;2.95;;
76373;SDS011;65197;50.164;8.012;2023-02-28T10:38:21;3.42;;;2.45;;
76373;SDS011;65197;50.164;8.012;2023-02-28T10:40:52;6.15;;;2.92;;
76373;SDS011;65197;50.164;8.012;2023-02-28T10:43:30;4.70;;;2.58;;
76373;SDS011;65197;50.164;8.012;2023-02-28T10:45:56;3.67;;;2.97;;
76373;SDS011;65197;50.164;8.012;2023-02-28T10:48:27;4.15;;;2.60;;
76373;SDS011;65197;50.164;8.012;2023-02-28T10:50:54;3.90;;;2.53;;
76373;SDS011;65197;50.164;8.012;2023-02-28T10:53:25;5.25;;;2.80;;
76373;SDS011;65197;50.164;8.012;2023-02-28T10:58:56;4.43;;;2.83;;
76373;SDS011;65197;50.164;8.012;2023-02-28T11:03:55;6.95;;;3.30;;
76373;SDS011;65197;50.164;8.012;2023-02-28T11:06:23;5.03;;;3.13;;
76373;SDS011;65197;50.164;8.012;2023-02-28T11:08:58;6.20;;;3.40;;
76373;SDS011;65197;50.164;8.012;2023-02-28T11:11:26;6.03;;;3.33;;
76373;SDS011;65197;50.164;8.012;2023-02-28T11:13:57;6.28;;;4.13;;
76373;SDS011;65197;50.164;8.012;2023-02-28T11:16:35;5.78;;;3.40;;
76373;SDS011;65197;50.164;8.012;2023-02-28T11:19:03;4.28;;;2.88;;
76373;SDS011;65197;50.164;8.012;2023-02-28T11:21:35;4.25;;;2.80;;
76373;SDS011;65197;50.164;8.012;2023-02-28T11:24:20;4.82;;;3.17;;
76373;SDS011;65197;50.164;8.012;2023-02-28T11:26:48;6.00;;;3.67;;
76373;SDS011;65197;50.164;8.012;2023-02-28T11:29:32;5.25;;;3.55;;
76373;SDS011;65197;50.164;8.012;2023-02-28T11:32:10;4.70;;;3.38;;
76373;SDS011;65197;50.164;8.012;2023-02-28T11:34:39;7.57;;;3.80;;
76373;SDS011;65197;50.164;8.012;2023-02-28T11:37:09;4.32;;;2.85;;
76373;SDS011;65197;50.164;8.012;2023-02-28T11:39:40;5.88;;;3.70;;
76373;SDS011;65197;50.164;8.012;2023-02-28T11:45:11;4.45;;;3.35;;
76373;SDS011;65197;50.164;8.012;2023-02-28T11:47:47;5.18;;;3.65;;
76373;SDS011;65197;50.164;8.012;2023-02-28T11:50:21;5.25;;;2.90;;
76373;SDS011;65197;50.164;8.012;2023-02-28T12:06:45;5.47;;;3.20;;
76373;SDS011;65197;50.164;8.012;2023-02-28T12:12:07;6.05;;;3.97;;
76373;SDS011;65197;50.164;8.012;2023-02-28T12:17:46;4.05;;;2.85;;
76373;SDS011;65197;50.164;8.012;2023-02-28T12:20:30;4.97;;;3.67;;
76373;SDS011;65197;50.164;8.012;2023-02-28T12:23:25;5.63;;;3.85;;
76373;SDS011;65197;50.164;8.012;2023-02-28T12:26:19;5.32;;;3.40;;
76373;SDS011;65197;50.164;8.012;2023-02-28T12:28:53;5.90;;;3.55;;
76373;SDS011;65197;50.164;8.012;2023-02-28T12:31:24;5.43;;;3.30;;
76373;SDS011;65197;50.164;8.012;2023-02-28T12:33:56;4.85;;;3.65;;
76373;SDS011;65197;50.164;8.012;2023-02-28T12:36:27;6.30;;;3.20;;
76373;SDS011;65197;50.164;8.012;2023-02-28T12:41:29;6.68;;;3.63;;
76373;SDS011;65197;50.164;8.012;2023-02-28T12:44:22;7.18;;;3.55;;
76373;SDS011;65197;50.164;8.012;2023-02-28T12:46:55;7.95;;;3.45;;
76373;SDS011;65197;50.164;8.012;2023-02-28T12:49:27;5.97;;;3.70;;
76373;SDS011;65197;50.164;8.012;2023-02-28T12:52:00;7.20;;;4.22;;
76373;SDS011;65197;50.164;8.012;2023-02-28T12:54:44;6.13;;;3.40;;
76373;SDS011;65197;50.164;8.012;2023-02-28T12:57:19;6.35;;;4.10;;
76373;SDS011;65197;50.164;8.012;2023-02-28T12:59:53;6.07;;;4.07;;
76373;SDS011;65197;50.164;8.012;2023-02-28T13:02:37;6.22;;;4.22;;
76373;SDS011;65197;50.164;8.012;2023-02-28T13:14:03;5.80;;;3.72;;
76373;SDS011;65197;50.164;8.012;2023-02-28T13:16:48;9.55;;;4.65;;
76373;SDS011;65197;50.164;8.012;2023-02-28T13:19:19;7.70;;;3.78;;
76373;SDS011;65197;50.164;8.012;2023-02-28T13:21:49;5.55;;;4.00;;
76373;SDS011;65197;50.164;8.012;2023-02-28T13:29:33;6.88;;;4.45;;
76373;SDS011;65197;50.164;8.012;2023-02-28T13:34:33;5.28;;;4.05;;
76373;SDS011;65197;50.164;8.012;2023-02-28T13:42:31;5.70;;;3.40;;
76373;SDS011;65197;50.164;8.012;2023-02-28T13:47:36;8.98;;;6.15;;
76373;SDS011;65197;50.164;8.012;2023-02-28T13:52:57;10.85;;;5.68;;
76373;SDS011;65197;50.164;8.012;2023-02-28T13:58:26;6.95;;;3.78;;
76373;SDS011;65197;50.164;8.012;2023-02-28T14:04:09;5.35;;;3.53;;
76373;SDS011;65197;50.164;8.012;2023-02-28T14:06:51;7.55;;;4.65;;
76373;SDS011;65197;50.164;8.012;2023-02-28T14:09:26;6.53;;;3.85;;
76373;SDS011;65197;50.164;8.012;2023-02-28T14:11:54;5.70;;;4.05;;
76373;SDS011;65197;50.164;8.012;2023-02-28T14:15:02;5.30;;;3.25;;
76373;SDS011;65197;50.164;8.012;2023-02-28T14:17:12;6.55;;;4.35;;
76373;SDS011;65197;50.164;8.012;2023-02-28T14:19:41;6.53;;;4.50;;
76373;SDS011;65197;50.164;8.012;2023-02-28T14:25:37;7.43;;;3.88;;
76373;SDS011;65197;50.164;8.012;2023-02-28T14:41:18;7.10;;;4.57;;
76373;SDS011;65197;50.164;8.012;2023-02-28T14:43:51;6.65;;;3.50;;
76373;SDS011;65197;50.164;8.012;2023-02-28T14:46:22;5.57;;;3.72;;
76373;SDS011;65197;50.164;8.012;2023-02-28T14:48:51;6.45;;;3.42;;
76373;SDS011;65197;50.164;8.012;2023-02-28T14:51:20;6.50;;;4.35;;
76373;SDS011;65197;50.164;8.012;2023-02-28T14:53:52;9.30;;;5.40;;
76373;SDS011;65197;50.164;8.012;2023-02-28T14:56:23;6.63;;;3.35;;
76373;SDS011;65197;50.164;8.012;2023-02-28T14:58:52;7.50;;;3.70;;
76373;SDS011;65197;50.164;8.012;2023-02-28T15:01:20;6.45;;;3.97;;
76373;SDS011;65197;50.164;8.012;2023-02-28T15:03:47;7.65;;;4.03;;
76373;SDS011;65197;50.164;8.012;2023-02-28T15:06:16;7.38;;;4.75;;
76373;SDS011;65197;50.164;8.012;2023-02-28T15:08:43;5.65;;;3.63;;
76373;SDS011;65197;50.164;8.012;2023-02-28T15:11:16;8.07;;;4.57;;
76373;SDS011;65197;50.164;8.012;2023-02-28T15:13:53;7.25;;;4.50;;
76373;SDS011;65197;50.164;8.012;2023-02-28T15:16:37;6.93;;;4.43;;
76373;SDS011;65197;50.164;8.012;2023-02-28T15:19:20;6.35;;;3.88;;
76373;SDS011;65197;50.164;8.012;2023-02-28T15:21:50;5.25;;;3.42;;
76373;SDS011;65197;50.164;8.012;2023-02-28T15:24:36;5.85;;;3.70;;
76373;SDS011;65197;50.164;8.012;2023-02-28T15:27:07;5.57;;;3.63;;
76373;SDS011;65197;50.164;8.012;2023-02-28T15:29:46;6.82;;;4.50;;
76373;SDS011;65197;50.164;8.012;2023-02-28T15:32:26;6.97;;;3.75;;
76373;SDS011;65197;50.164;8.012;2023-02-28T15:34:57;6.30;;;4.03;;
76373;SDS011;65197;50.164;8.012;2023-02-28T15:37:46;4.68;;;3.17;;
76373;SDS011;65197;50.164;8.012;2023-02-28T15:40:18;6.75;;;3.90;;
76373;SDS011;65197;50.164;8.012;2023-02-28T15:43:13;5.55;;;3.38;;
76373;SDS011;65197;50.164;8.012;2023-02-28T15:45:47;6.15;;;4.00;;
76373;SDS011;65197;50.164;8.012;2023-02-28T15:53:58;6.57;;;4.03;;
76373;SDS011;65197;50.164;8.012;2023-02-28T15:56:27;10.10;;;4.93;;
76373;SDS011;65197;50.164;8.012;2023-02-28T15:58:58;8.52;;;5.22;;
76373;SDS011;65197;50.164;8.012;2023-02-28T16:01:26;5.95;;;3.67;;
76373;SDS011;65197;50.164;8.012;2023-02-28T16:03:56;9.77;;;5.53;;
76373;SDS011;65197;50.164;8.012;2023-02-28T16:06:26;7.82;;;4.57;;
76373;SDS011;65197;50.164;8.012;2023-02-28T16:08:57;5.45;;;3.97;;
76373;SDS011;65197;50.164;8.012;2023-02-28T16:11:23;6.65;;;4.38;;
76373;SDS011;65197;50.164;8.012;2023-02-28T16:13:48;8.15;;;4.30;;
76373;SDS011;65197;50.164;8.012;2023-02-28T16:16:17;5.60;;;3.15;;
76373;SDS011;65197;50.164;8.012;2023-02-28T16:18:45;7.38;;;4.10;;
76373;SDS011;65197;50.164;8.012;2023-02-28T16:21:10;7.38;;;4.72;;
76373;SDS011;65197;50.164;8.012;2023-02-28T16:23:36;5.03;;;3.30;;
76373;SDS011;65197;50.164;8.012;2023-02-28T16:26:02;5.15;;;3.30;;
76373;SDS011;65197;50.164;8.012;2023-02-28T16:28:31;5.95;;;3.72;;
76373;SDS011;65197;50.164;8.012;2023-02-28T16:30:59;6.88;;;4.32;;
76373;SDS011;65197;50.164;8.012;2023-02-28T16:33:28;5.65;;;3.72;;
76373;SDS011;65197;50.164;8.012;2023-02-28T16:35:54;6.43;;;3.90;;
76373;SDS011;65197;50.164;8.012;2023-02-28T16:38:19;7.60;;;3.78;;
76373;SDS011;65197;50.164;8.012;2023-02-28T16:40:46;7.40;;;4.55;;
76373;SDS011;65197;50.164;8.012;2023-02-28T16:43:15;7.43;;;3.97;;
76373;SDS011;65197;50.164;8.012;2023-02-28T16:45:44;7.90;;;4.25;;
76373;SDS011;65197;50.164;8.012;2023-02-28T16:48:16;11.90;;;5.13;;
76373;SDS011;65197;50.164;8.012;2023-02-28T16:50:41;6.35;;;4.10;;
76373;SDS011;65197;50.164;8.012;2023-02-28T16:53:09;9.80;;;4.65;;
76373;SDS011;65197;50.164;8.012;2023-02-28T16:55:35;7.38;;;4.38;;
76373;SDS011;65197;50.164;8.012;2023-02-28T16:58:01;7.03;;;3.95;;
76373;SDS011;65197;50.164;8.012;2023-02-28T17:00:28;8.15;;;4.70;;
76373;SDS011;65197;50.164;8.012;2023-02-28T17:02:56;6.40;;;3.53;;
76373;SDS011;65197;50.164;8.012;2023-02-28T17:05:23;7.03;;;4.18;;
76373;SDS011;65197;50.164;8.012;2023-02-28T17:07:50;6.95;;;3.72;;
76373;SDS011;65197;50.164;8.012;2023-02-28T17:10:20;8.93;;;4.63;;